This is the latest recevied weather packets stored in our database for station/object W4RJG. If no packets are shown the sender has not sent any weather packets the latest 10 day(s).
| Time | Temp. | Humidity | Pressure | Rain* | Wind** | Luminosity | Snow |
|---|---|---|---|---|---|---|---|
| 1777804804 | 1.11° C | 94% | 1007.1 hPa | 0 mm | - | 0 W/m² | - |
| 1777804204 | 1.11° C | 94% | 1007.1 hPa | 0 mm | - | 0 W/m² | - |
| 1777802404 | 1.67° C | 93% | 1006.4 hPa | 0 mm | - | 0 W/m² | - |
| 1777797604 | 3.89° C | 86% | 1005.4 hPa | 0 mm | - | 0 W/m² | - |
| 1777790405 | 4.44° C | 82% | 1004.4 hPa | 0 mm | - | 0 W/m² | - |
| 1777789204 | 5° C | 83% | 1004.4 hPa | 0 mm | - | 0 W/m² | - |
| 1777788004 | 5.56° C | 77% | 1004.4 hPa | 0 mm | - | 0 W/m² | - |
| 1777783803 | 5.56° C | 86% | 1004.1 hPa | 0 mm | - | 0 W/m² | - |
| 1777783204 | 5.56° C | 85% | 1004.1 hPa | 0 mm | - | 0 W/m² | - |
| 1777782604 | 5.56° C | 86% | 1004.1 hPa | 0 mm | - | 0 W/m² | - |
| 1777782004 | 6.11° C | 85% | 1004.1 hPa | 0 mm | - | 0 W/m² | - |
| 1777775403 | 8.89° C | 86% | 1003.7 hPa | 0 mm | - | 0 W/m² | - |
| 1777758604 | 16.67° C | 47% | 1000.3 hPa | 0 mm | - | 0 W/m² | - |
| 1777756804 | 17.78° C | 44% | 1000.7 hPa | 0 mm | - | 0 W/m² | - |
| 1777755603 | 18.89° C | 42% | 1001 hPa | 0 mm | - | 0 W/m² | - |
| 1777749604 | 16.67° C | 46% | 1001.7 hPa | 0 mm | - | 0 W/m² | - |
| 1777748404 | 15.56° C | 49% | 1001.7 hPa | 0 mm | - | 0 W/m² | - |
| 1777743604 | 16.11° C | 52% | 1002.4 hPa | 0 mm | - | 0 W/m² | - |
| 1777737604 | 15° C | 59% | 1003.7 hPa | 0 mm | - | 0 W/m² | - |
| 1777737005 | 15° C | 57% | 1003.7 hPa | 0 mm | - | 0 W/m² | - |
| 1777732204 | 14.44° C | 69% | 1003 hPa | 0 mm | - | 0 W/m² | - |
| 1777728605 | 13.33° C | 71% | 1003.4 hPa | 0 mm | - | 0 W/m² | - |
| 1777719005 | 11.67° C | 77% | 1002.7 hPa | 0 mm | - | 0 W/m² | - |
| 1777716006 | 11.67° C | 76% | 1002.7 hPa | 0 mm | - | 0 W/m² | - |
| 1777709405 | 10.56° C | 91% | 1001.4 hPa | 0 mm | - | 0 W/m² | - |
* Rain latest hour (hover to see other rain measurements)
** Current wind speed in m/s (hover to see current wind gust speed)